PWSweather.com
Personal Weather Stations
Station Observations
IMAZOWIE6
WarszawaPL

WarszawaPL

Lat: 52.27957, Lon: 21.05489

Elevation: 100

Station Type: WS1080

http://stacjapogody.waw.pl/

High Low Average
Temperature 49.3°F9.6°C 37.6°F3.1°C 42.4°F5.8°C
Dew Point -167.9°F-111.1°C -169.0°F-111.7°C -168.6°F-111.4°C
Winds Calm Calm Calm Calm Calm NCalm N
Wind Gusts 0.6 mph1.0 kmh -- --
Humidity - - -
Pressure 29.37 in994.6 mb 28.98 in981.4 mb -
Precipitation 0.00 in0.0 mm - -
Hour Temp Dew Point Humidity Winds Wind Gusts Pressure Precip Precip Rate Daily Precip Total
12:03 AM 41.2°F5.1°C -168.7°F-111.5°C - Calm Calm -- 29.05 in983.7 mb 0.00 in0.0 mm 0.00 in0.0 mm 0.00 in0.0 mm
12:18 AM 41.2°F5.1°C -168.7°F-111.5°C - Calm Calm -- 29.05 in983.7 mb 0.00 in0.0 mm 0.00 in0.0 mm 0.00 in0.0 mm
12:33 AM 41.0°F5.0°C -168.7°F-111.5°C - Calm Calm 0.6 mph1.0 kmh 29.04 in983.4 mb 0.00 in0.0 mm 0.00 in0.0 mm 0.00 in0.0 mm
12:48 AM 40.8°F4.9°C -168.7°F-111.5°C - Calm Calm -- 29.04 in983.4 mb 0.00 in0.0 mm 0.00 in0.0 mm 0.00 in0.0 mm
01:03 AM 41.2°F5.1°C -168.7°F-111.5°C - Calm Calm -- 29.03 in983.1 mb 0.00 in0.0 mm 0.00 in0.0 mm 0.00 in0.0 mm
01:18 AM 41.4°F5.2°C -168.7°F-111.5°C - Calm Calm -- 29.03 in983.1 mb 0.00 in0.0 mm 0.00 in0.0 mm 0.00 in0.0 mm
01:33 AM 41.7°F5.4°C -168.6°F-111.4°C - Calm Calm 0.6 mph1.0 kmh 29.03 in983.1 mb 0.00 in0.0 mm 0.00 in0.0 mm 0.00 in0.0 mm
01:48 AM 42.1°F5.6°C -168.6°F-111.4°C - Calm Calm -- 29.03 in983.1 mb 0.00 in0.0 mm 0.00 in0.0 mm 0.00 in0.0 mm
02:03 AM 42.4°F5.8°C -168.6°F-111.4°C - Calm Calm -- 29.03 in983.1 mb 0.00 in0.0 mm 0.00 in0.0 mm 0.00 in0.0 mm
02:18 AM 42.4°F5.8°C -168.6°F-111.4°C - Calm Calm -- 29.02 in982.7 mb 0.00 in0.0 mm 0.00 in0.0 mm 0.00 in0.0 mm
02:33 AM 42.6°F5.9°C -168.5°F-111.4°C - Calm Calm -- 29.01 in982.4 mb 0.00 in0.0 mm 0.00 in0.0 mm 0.00 in0.0 mm
02:48 AM 42.6°F5.9°C -168.5°F-111.4°C - Calm Calm -- 29.00 in982.1 mb 0.00 in0.0 mm 0.00 in0.0 mm 0.00 in0.0 mm
03:03 AM 42.6°F5.9°C -168.5°F-111.4°C - Calm Calm -- 29.00 in982.1 mb 0.00 in0.0 mm 0.00 in0.0 mm 0.00 in0.0 mm
03:18 AM 42.4°F5.8°C -168.6°F-111.4°C - Calm Calm -- 29.00 in982.1 mb 0.00 in0.0 mm 0.00 in0.0 mm 0.00 in0.0 mm
03:33 AM 41.9°F5.5°C -168.6°F-111.4°C - Calm Calm -- 29.00 in982.1 mb 0.01 in0.3 mm 0.05 in1.3 mm 0.01 in0.3 mm
03:48 AM 41.7°F5.4°C -168.6°F-111.4°C - Calm Calm -- 28.99 in981.7 mb 0.02 in0.5 mm 0.05 in1.3 mm 0.02 in0.5 mm
04:03 AM 41.7°F5.4°C -168.6°F-111.4°C - Calm Calm -- 28.99 in981.7 mb 0.02 in0.5 mm 0.00 in0.0 mm 0.02 in0.5 mm
04:18 AM 41.4°F5.2°C -168.7°F-111.5°C - Calm Calm -- 28.99 in981.7 mb 0.01 in0.3 mm 0.00 in0.0 mm 0.02 in0.5 mm
04:33 AM 41.4°F5.2°C -168.7°F-111.5°C - Calm Calm -- 28.99 in981.7 mb 0.02 in0.5 mm 0.05 in1.3 mm 0.04 in1.0 mm
04:48 AM 41.2°F5.1°C -168.7°F-111.5°C - Calm Calm -- 28.99 in981.7 mb 0.04 in1.0 mm 0.05 in1.3 mm 0.05 in1.3 mm
05:03 AM 41.4°F5.2°C -168.7°F-111.5°C - Calm Calm -- 28.98 in981.4 mb 0.04 in1.0 mm 0.00 in0.0 mm 0.05 in1.3 mm
05:18 AM 41.4°F5.2°C -168.7°F-111.5°C - Calm Calm -- 28.98 in981.4 mb 0.00 in0.0 mm 0.00 in0.0 mm 0.05 in1.3 mm
05:33 AM 41.5°F5.3°C -168.6°F-111.4°C - Calm Calm -- 28.98 in981.4 mb 0.00 in0.0 mm 0.00 in0.0 mm 0.05 in1.3 mm
05:48 AM 41.5°F5.3°C -168.6°F-111.4°C - Calm Calm -- 28.98 in981.4 mb 0.00 in0.0 mm 0.00 in0.0 mm 0.05 in1.3 mm
06:03 AM 41.7°F5.4°C -168.6°F-111.4°C - Calm Calm -- 28.99 in981.7 mb 0.00 in0.0 mm 0.00 in0.0 mm 0.05 in1.3 mm
06:18 AM 41.9°F5.5°C -168.6°F-111.4°C - Calm Calm -- 28.99 in981.7 mb 0.00 in0.0 mm 0.00 in0.0 mm 0.05 in1.3 mm
06:33 AM 42.1°F5.6°C -168.6°F-111.4°C - Calm Calm -- 28.99 in981.7 mb 0.00 in0.0 mm 0.00 in0.0 mm 0.05 in1.3 mm
06:48 AM 42.3°F5.7°C -168.6°F-111.4°C - Calm Calm -- 28.99 in981.7 mb 0.00 in0.0 mm 0.00 in0.0 mm 0.05 in1.3 mm
07:03 AM 42.4°F5.8°C -168.6°F-111.4°C - Calm Calm -- 28.99 in981.7 mb 0.00 in0.0 mm 0.00 in0.0 mm 0.05 in1.3 mm
07:18 AM 42.6°F5.9°C -168.5°F-111.4°C - Calm Calm -- 28.99 in981.7 mb 0.00 in0.0 mm 0.00 in0.0 mm 0.05 in1.3 mm
07:33 AM 42.8°F6.0°C -168.5°F-111.4°C - Calm Calm -- 29.00 in982.1 mb 0.00 in0.0 mm 0.00 in0.0 mm 0.05 in1.3 mm
07:48 AM 43.0°F6.1°C -168.5°F-111.4°C - Calm Calm 0.6 mph1.0 kmh 29.00 in982.1 mb 0.00 in0.0 mm 0.00 in0.0 mm 0.05 in1.3 mm
08:03 AM 43.2°F6.2°C -168.5°F-111.4°C - Calm Calm -- 29.00 in982.1 mb 0.00 in0.0 mm 0.00 in0.0 mm 0.05 in1.3 mm
08:18 AM 43.2°F6.2°C -168.5°F-111.4°C - Calm Calm 0.6 mph1.0 kmh 29.01 in982.4 mb 0.00 in0.0 mm 0.00 in0.0 mm 0.05 in1.3 mm
08:33 AM 43.5°F6.4°C -168.4°F-111.3°C - Calm Calm -- 29.01 in982.4 mb 0.00 in0.0 mm 0.00 in0.0 mm 0.05 in1.3 mm
08:48 AM 44.4°F6.9°C -168.4°F-111.3°C - Calm Calm -- 29.02 in982.7 mb 0.00 in0.0 mm 0.00 in0.0 mm 0.05 in1.3 mm
09:03 AM 44.8°F7.1°C -168.3°F-111.3°C - Calm Calm -- 29.02 in982.7 mb 0.00 in0.0 mm 0.00 in0.0 mm 0.05 in1.3 mm
09:18 AM 45.0°F7.2°C -168.3°F-111.3°C - Calm Calm -- 29.02 in982.7 mb 0.00 in0.0 mm 0.00 in0.0 mm 0.05 in1.3 mm
09:33 AM 45.1°F7.3°C -168.3°F-111.3°C - Calm Calm -- 29.03 in983.1 mb 0.00 in0.0 mm 0.00 in0.0 mm 0.05 in1.3 mm
09:48 AM 45.5°F7.5°C -168.3°F-111.3°C - Calm Calm -- 29.03 in983.1 mb 0.00 in0.0 mm 0.00 in0.0 mm 0.05 in1.3 mm
10:03 AM 45.5°F7.5°C -168.3°F-111.3°C - Calm Calm -- 29.03 in983.1 mb 0.00 in0.0 mm 0.00 in0.0 mm 0.05 in1.3 mm
10:18 AM 46.0°F7.8°C -168.2°F-111.2°C - Calm Calm -- 29.04 in983.4 mb 0.00 in0.0 mm 0.00 in0.0 mm 0.05 in1.3 mm
10:33 AM 46.2°F7.9°C -168.2°F-111.2°C - Calm Calm -- 29.04 in983.4 mb 0.00 in0.0 mm 0.00 in0.0 mm 0.05 in1.3 mm
10:48 AM 46.4°F8.0°C -168.2°F-111.2°C - Calm Calm -- 29.05 in983.7 mb 0.00 in0.0 mm 0.00 in0.0 mm 0.05 in1.3 mm
11:03 AM 46.8°F8.2°C -168.1°F-111.2°C - Calm Calm 0.6 mph1.0 kmh 29.05 in983.7 mb 0.00 in0.0 mm 0.00 in0.0 mm 0.05 in1.3 mm
11:18 AM 47.1°F8.4°C -168.1°F-111.2°C - Calm Calm -- 29.04 in983.4 mb 0.00 in0.0 mm 0.00 in0.0 mm 0.05 in1.3 mm
11:33 AM 46.8°F8.2°C -168.1°F-111.2°C - Calm Calm -- 29.04 in983.4 mb 0.00 in0.0 mm 0.00 in0.0 mm 0.05 in1.3 mm
11:45 AM 46.8°F8.2°C -168.1°F-111.2°C - Calm Calm -- 29.04 in983.4 mb 0.00 in0.0 mm 0.00 in0.0 mm 0.05 in1.3 mm
12:03 PM 49.3°F9.6°C -167.9°F-111.1°C - Calm Calm -- 29.05 in983.7 mb 0.00 in0.0 mm 0.00 in0.0 mm 0.05 in1.3 mm
12:18 PM 48.2°F9.0°C -168.0°F-111.1°C - Calm Calm -- 29.06 in984.1 mb 0.00 in0.0 mm 0.00 in0.0 mm 0.05 in1.3 mm
12:33 PM 47.7°F8.7°C -168.0°F-111.1°C - Calm Calm 0.6 mph1.0 kmh 29.06 in984.1 mb 0.00 in0.0 mm 0.00 in0.0 mm 0.05 in1.3 mm
12:48 PM 48.0°F8.9°C -168.0°F-111.1°C - Calm Calm -- 29.06 in984.1 mb 0.00 in0.0 mm 0.00 in0.0 mm 0.05 in1.3 mm
01:03 PM 48.6°F9.2°C -167.9°F-111.1°C - Calm Calm -- 29.06 in984.1 mb 0.00 in0.0 mm 0.00 in0.0 mm 0.05 in1.3 mm
01:18 PM 47.8°F8.8°C -168.0°F-111.1°C - Calm Calm -- 29.07 in984.4 mb 0.00 in0.0 mm 0.00 in0.0 mm 0.05 in1.3 mm
01:33 PM 47.1°F8.4°C -168.1°F-111.2°C - Calm Calm -- 29.08 in984.8 mb 0.00 in0.0 mm 0.00 in0.0 mm 0.05 in1.3 mm
01:48 PM 46.0°F7.8°C -168.2°F-111.2°C - Calm Calm -- 29.09 in985.1 mb 0.00 in0.0 mm 0.00 in0.0 mm 0.05 in1.3 mm
02:00 PM 46.0°F7.8°C -168.2°F-111.2°C - Calm Calm -- 29.09 in985.1 mb 0.00 in0.0 mm 0.00 in0.0 mm 0.05 in1.3 mm
02:18 PM 43.9°F6.6°C -168.4°F-111.3°C - Calm Calm -- 29.11 in985.8 mb 0.00 in0.0 mm 0.00 in0.0 mm 0.05 in1.3 mm
02:32 PM 43.9°F6.6°C -168.4°F-111.3°C - Calm Calm -- 29.11 in985.8 mb 0.00 in0.0 mm 0.00 in0.0 mm 0.05 in1.3 mm
02:48 PM 41.9°F5.5°C -168.6°F-111.4°C - Calm Calm -- 29.12 in986.1 mb 0.01 in0.3 mm 0.05 in1.3 mm 0.06 in1.5 mm
03:03 PM 41.5°F5.3°C -168.6°F-111.4°C - Calm Calm -- 29.13 in986.5 mb 0.01 in0.3 mm 0.00 in0.0 mm 0.06 in1.5 mm
03:18 PM 41.4°F5.2°C -168.7°F-111.5°C - Calm Calm 0.6 mph1.0 kmh 29.14 in986.8 mb 0.00 in0.0 mm 0.00 in0.0 mm 0.06 in1.5 mm
03:30 PM 41.4°F5.2°C -168.7°F-111.5°C - Calm Calm 0.6 mph1.0 kmh 29.14 in986.8 mb 0.00 in0.0 mm 0.00 in0.0 mm 0.06 in1.5 mm
03:48 PM 41.0°F5.0°C -168.7°F-111.5°C - Calm Calm -- 29.16 in987.5 mb 0.00 in0.0 mm 0.00 in0.0 mm 0.06 in1.5 mm
04:03 PM 41.0°F5.0°C -168.7°F-111.5°C - Calm Calm -- 29.16 in987.5 mb 0.00 in0.0 mm 0.00 in0.0 mm 0.06 in1.5 mm
04:16 PM 41.0°F5.0°C -168.7°F-111.5°C - Calm Calm -- 29.16 in987.5 mb 0.00 in0.0 mm 0.00 in0.0 mm 0.06 in1.5 mm
04:33 PM 41.0°F5.0°C -168.7°F-111.5°C - Calm Calm -- 29.16 in987.5 mb 0.00 in0.0 mm 0.00 in0.0 mm 0.06 in1.5 mm
04:48 PM 41.0°F5.0°C -168.7°F-111.5°C - Calm Calm -- 29.16 in987.5 mb 0.00 in0.0 mm 0.00 in0.0 mm 0.06 in1.5 mm
05:03 PM 41.0°F5.0°C -168.7°F-111.5°C - Calm Calm -- 29.16 in987.5 mb 0.00 in0.0 mm 0.00 in0.0 mm 0.06 in1.5 mm
05:18 PM 41.0°F5.0°C -168.7°F-111.5°C - Calm Calm -- 29.16 in987.5 mb 0.00 in0.0 mm 0.00 in0.0 mm 0.06 in1.5 mm
05:33 PM 41.0°F5.0°C -168.7°F-111.5°C - Calm Calm -- 29.16 in987.5 mb 0.00 in0.0 mm 0.00 in0.0 mm 0.06 in1.5 mm
05:48 PM 41.0°F5.0°C -168.7°F-111.5°C - Calm Calm -- 29.16 in987.5 mb 0.00 in0.0 mm 0.00 in0.0 mm 0.06 in1.5 mm
06:01 PM 41.0°F5.0°C -168.7°F-111.5°C - Calm Calm -- 29.16 in987.5 mb 0.00 in0.0 mm 0.00 in0.0 mm 0.06 in1.5 mm
06:15 PM 41.0°F5.0°C -168.7°F-111.5°C - Calm Calm -- 29.16 in987.5 mb 0.00 in0.0 mm 0.00 in0.0 mm 0.06 in1.5 mm
06:33 PM 41.0°F5.0°C -168.7°F-111.5°C - Calm Calm -- 29.16 in987.5 mb 0.00 in0.0 mm 0.00 in0.0 mm 0.06 in1.5 mm
06:48 PM 41.0°F5.0°C -168.7°F-111.5°C - Calm Calm -- 29.16 in987.5 mb 0.00 in0.0 mm 0.00 in0.0 mm 0.06 in1.5 mm
07:03 PM 41.0°F5.0°C -168.7°F-111.5°C - Calm Calm -- 29.16 in987.5 mb 0.00 in0.0 mm 0.00 in0.0 mm 0.06 in1.5 mm
07:17 PM 41.0°F5.0°C -168.7°F-111.5°C - Calm Calm -- 29.16 in987.5 mb 0.00 in0.0 mm 0.00 in0.0 mm 0.06 in1.5 mm
07:31 PM 41.0°F5.0°C -168.7°F-111.5°C - Calm Calm -- 29.16 in987.5 mb 0.00 in0.0 mm 0.00 in0.0 mm 0.06 in1.5 mm
07:48 PM 41.0°F5.0°C -168.7°F-111.5°C - Calm Calm -- 29.16 in987.5 mb 0.00 in0.0 mm 0.00 in0.0 mm 0.06 in1.5 mm
08:03 PM 40.3°F4.6°C -168.8°F-111.6°C - Calm Calm -- 29.28 in991.5 mb 0.00 in0.0 mm 0.00 in0.0 mm 0.06 in1.5 mm
08:18 PM 40.3°F4.6°C -168.8°F-111.6°C - Calm Calm -- 29.28 in991.5 mb 0.00 in0.0 mm 0.00 in0.0 mm 0.06 in1.5 mm
08:33 PM 40.6°F4.8°C -168.7°F-111.5°C - Calm Calm -- 29.29 in991.9 mb 0.00 in0.0 mm 0.00 in0.0 mm 0.06 in1.5 mm
08:48 PM 40.6°F4.8°C -168.7°F-111.5°C - Calm Calm -- 29.29 in991.9 mb 0.00 in0.0 mm 0.00 in0.0 mm 0.06 in1.5 mm
09:03 PM 40.6°F4.8°C -168.7°F-111.5°C - Calm Calm -- 29.29 in991.9 mb 0.00 in0.0 mm 0.00 in0.0 mm 0.06 in1.5 mm
09:18 PM 40.5°F4.7°C -168.8°F-111.6°C - Calm Calm -- 29.31 in992.6 mb 0.00 in0.0 mm 0.00 in0.0 mm 0.06 in1.5 mm
09:33 PM 39.9°F4.4°C -168.8°F-111.6°C - Calm Calm -- 29.32 in992.9 mb 0.00 in0.0 mm 0.00 in0.0 mm 0.06 in1.5 mm
09:45 PM 39.9°F4.4°C -168.8°F-111.6°C - Calm Calm -- 29.32 in992.9 mb 0.00 in0.0 mm 0.00 in0.0 mm 0.06 in1.5 mm
10:03 PM 39.2°F4.0°C -168.9°F-111.6°C - Calm Calm -- 29.33 in993.2 mb 0.01 in0.3 mm 0.02 in0.5 mm 0.07 in1.8 mm
10:18 PM 38.7°F3.7°C -168.9°F-111.6°C - Calm Calm -- 29.34 in993.6 mb 0.00 in0.0 mm 0.00 in0.0 mm 0.07 in1.8 mm
10:30 PM 38.7°F3.7°C -168.9°F-111.6°C - Calm Calm -- 29.34 in993.6 mb 0.00 in0.0 mm 0.00 in0.0 mm 0.07 in1.8 mm
10:48 PM 37.6°F3.1°C -169.0°F-111.7°C - Calm Calm -- 29.36 in994.2 mb 0.01 in0.3 mm 0.04 in1.0 mm 0.09 in2.3 mm
11:03 PM 37.6°F3.1°C -169.0°F-111.7°C - Calm Calm -- 29.36 in994.2 mb 0.01 in0.3 mm 0.00 in0.0 mm 0.09 in2.3 mm
11:18 PM 37.8°F3.2°C -169.0°F-111.7°C - Calm Calm -- 29.36 in994.2 mb 0.00 in0.0 mm 0.00 in0.0 mm 0.09 in2.3 mm
11:33 PM 37.6°F3.1°C -169.0°F-111.7°C - Calm Calm -- 29.37 in994.6 mb 0.00 in0.0 mm 0.00 in0.0 mm 0.09 in2.3 mm
11:48 PM 37.8°F3.2°C -169.0°F-111.7°C - Calm Calm -- 29.37 in994.6 mb 0.00 in0.0 mm 0.00 in0.0 mm 0.09 in2.3 mm